sensor_id;sensor_type;location;lat;lon;timestamp;temperature;humidity
39079;DHT22;24829;49.208;12.080;2022-07-23T00:00:35;23.20;94.90
39079;DHT22;24829;49.208;12.080;2022-07-23T00:03:00;23.10;95.30
39079;DHT22;24829;49.208;12.080;2022-07-23T00:05:26;23.10;95.50
39079;DHT22;24829;49.208;12.080;2022-07-23T00:07:51;23.00;95.70
39079;DHT22;24829;49.208;12.080;2022-07-23T00:10:17;23.00;95.90
39079;DHT22;24829;49.208;12.080;2022-07-23T00:12:43;22.90;96.20
39079;DHT22;24829;49.208;12.080;2022-07-23T00:15:09;22.90;96.50
39079;DHT22;24829;49.208;12.080;2022-07-23T00:17:34;22.80;96.70
39079;DHT22;24829;49.208;12.080;2022-07-23T00:20:00;22.80;96.90
39079;DHT22;24829;49.208;12.080;2022-07-23T00:22:26;22.90;96.80
39079;DHT22;24829;49.208;12.080;2022-07-23T00:24:53;22.90;96.50
39079;DHT22;24829;49.208;12.080;2022-07-23T00:27:18;22.90;96.40
39079;DHT22;24829;49.208;12.080;2022-07-23T00:29:44;22.80;96.70
39079;DHT22;24829;49.208;12.080;2022-07-23T00:32:10;22.70;97.00
39079;DHT22;24829;49.208;12.080;2022-07-23T00:34:35;22.60;98.30
39079;DHT22;24829;49.208;12.080;2022-07-23T00:37:01;22.50;99.30
39079;DHT22;24829;49.208;12.080;2022-07-23T00:39:26;22.30;99.30
39079;DHT22;24829;49.208;12.080;2022-07-23T00:41:52;22.20;99.30
39079;DHT22;24829;49.208;12.080;2022-07-23T00:44:26;22.10;99.80
39079;DHT22;24829;49.208;12.080;2022-07-23T00:46:56;22.00;99.90
39079;DHT22;24829;49.208;12.080;2022-07-23T00:49:27;22.00;99.90
39079;DHT22;24829;49.208;12.080;2022-07-23T00:51:53;22.10;99.90
39079;DHT22;24829;49.208;12.080;2022-07-23T00:54:20;22.10;99.90
39079;DHT22;24829;49.208;12.080;2022-07-23T00:56:47;22.10;99.90
39079;DHT22;24829;49.208;12.080;2022-07-23T00:59:13;22.10;99.90
39079;DHT22;24829;49.208;12.080;2022-07-23T01:01:40;22.20;99.90
39079;DHT22;24829;49.208;12.080;2022-07-23T01:04:05;22.30;99.90
39079;DHT22;24829;49.208;12.080;2022-07-23T01:06:34;22.30;99.20
39079;DHT22;24829;49.208;12.080;2022-07-23T01:09:00;22.30;98.40
39079;DHT22;24829;49.208;12.080;2022-07-23T01:11:26;22.30;97.90
39079;DHT22;24829;49.208;12.080;2022-07-23T01:13:52;22.40;97.50
39079;DHT22;24829;49.208;12.080;2022-07-23T01:16:19;22.40;97.20
39079;DHT22;24829;49.208;12.080;2022-07-23T01:18:44;22.40;97.50
39079;DHT22;24829;49.208;12.080;2022-07-23T01:21:12;22.40;97.50
39079;DHT22;24829;49.208;12.080;2022-07-23T01:23:41;22.50;97.00
39079;DHT22;24829;49.208;12.080;2022-07-23T01:26:06;22.50;96.70
39079;DHT22;24829;49.208;12.080;2022-07-23T01:28:32;22.60;97.20
39079;DHT22;24829;49.208;12.080;2022-07-23T01:30:58;22.60;97.70
39079;DHT22;24829;49.208;12.080;2022-07-23T01:33:23;22.50;97.80
39079;DHT22;24829;49.208;12.080;2022-07-23T01:35:49;22.50;98.00
39079;DHT22;24829;49.208;12.080;2022-07-23T01:38:15;22.40;98.20
39079;DHT22;24829;49.208;12.080;2022-07-23T01:40:40;22.30;98.50
39079;DHT22;24829;49.208;12.080;2022-07-23T01:43:06;22.30;98.70
39079;DHT22;24829;49.208;12.080;2022-07-23T01:45:31;22.30;99.00
39079;DHT22;24829;49.208;12.080;2022-07-23T01:47:57;22.30;99.00
39079;DHT22;24829;49.208;12.080;2022-07-23T01:50:22;22.20;99.20
39079;DHT22;24829;49.208;12.080;2022-07-23T01:52:48;22.20;99.40
39079;DHT22;24829;49.208;12.080;2022-07-23T01:55:13;22.30;99.80
39079;DHT22;24829;49.208;12.080;2022-07-23T01:57:39;22.30;99.80
39079;DHT22;24829;49.208;12.080;2022-07-23T02:00:05;22.30;99.90
39079;DHT22;24829;49.208;12.080;2022-07-23T02:02:31;22.30;99.80
39079;DHT22;24829;49.208;12.080;2022-07-23T02:04:56;22.40;99.90
39079;DHT22;24829;49.208;12.080;2022-07-23T02:07:22;22.40;99.90
39079;DHT22;24829;49.208;12.080;2022-07-23T02:09:48;22.50;99.90
39079;DHT22;24829;49.208;12.080;2022-07-23T02:12:14;22.50;99.90
39079;DHT22;24829;49.208;12.080;2022-07-23T02:14:39;22.50;99.90
39079;DHT22;24829;49.208;12.080;2022-07-23T02:17:05;22.50;99.90
39079;DHT22;24829;49.208;12.080;2022-07-23T02:19:30;22.50;99.90
39079;DHT22;24829;49.208;12.080;2022-07-23T02:21:56;22.50;99.90
39079;DHT22;24829;49.208;12.080;2022-07-23T02:24:22;22.50;99.50
39079;DHT22;24829;49.208;12.080;2022-07-23T02:26:47;22.50;99.50
39079;DHT22;24829;49.208;12.080;2022-07-23T02:29:13;22.50;99.20
39079;DHT22;24829;49.208;12.080;2022-07-23T02:31:38;22.50;99.60
39079;DHT22;24829;49.208;12.080;2022-07-23T02:34:04;22.40;99.90
39079;DHT22;24829;49.208;12.080;2022-07-23T02:36:30;22.40;99.70
39079;DHT22;24829;49.208;12.080;2022-07-23T02:38:55;22.30;99.60
39079;DHT22;24829;49.208;12.080;2022-07-23T02:41:22;22.30;99.80
39079;DHT22;24829;49.208;12.080;2022-07-23T02:43:47;22.20;99.90
39079;DHT22;24829;49.208;12.080;2022-07-23T02:46:13;22.20;99.90
39079;DHT22;24829;49.208;12.080;2022-07-23T02:48:38;22.20;99.90
39079;DHT22;24829;49.208;12.080;2022-07-23T02:51:04;22.20;99.90
39079;DHT22;24829;49.208;12.080;2022-07-23T02:53:30;22.10;99.90
39079;DHT22;24829;49.208;12.080;2022-07-23T02:55:55;22.10;99.90
39079;DHT22;24829;49.208;12.080;2022-07-23T02:58:21;22.10;99.90
39079;DHT22;24829;49.208;12.080;2022-07-23T03:00:46;22.00;99.90
39079;DHT22;24829;49.208;12.080;2022-07-23T03:03:12;22.00;99.90
39079;DHT22;24829;49.208;12.080;2022-07-23T03:05:38;21.80;99.90
39079;DHT22;24829;49.208;12.080;2022-07-23T03:08:04;21.70;99.90
39079;DHT22;24829;49.208;12.080;2022-07-23T03:10:29;21.60;99.90
39079;DHT22;24829;49.208;12.080;2022-07-23T03:12:55;21.40;99.90
39079;DHT22;24829;49.208;12.080;2022-07-23T03:15:20;21.30;99.90
39079;DHT22;24829;49.208;12.080;2022-07-23T03:17:46;21.10;99.90
39079;DHT22;24829;49.208;12.080;2022-07-23T03:20:12;21.00;99.90
39079;DHT22;24829;49.208;12.080;2022-07-23T03:22:37;20.80;99.90
39079;DHT22;24829;49.208;12.080;2022-07-23T03:25:03;20.80;99.90
39079;DHT22;24829;49.208;12.080;2022-07-23T03:27:29;20.80;99.90
39079;DHT22;24829;49.208;12.080;2022-07-23T03:29:57;20.80;99.90
39079;DHT22;24829;49.208;12.080;2022-07-23T03:32:23;20.90;99.90
39079;DHT22;24829;49.208;12.080;2022-07-23T03:34:49;20.90;99.90
39079;DHT22;24829;49.208;12.080;2022-07-23T03:37:15;20.80;99.90
39079;DHT22;24829;49.208;12.080;2022-07-23T03:39:41;20.80;99.90
39079;DHT22;24829;49.208;12.080;2022-07-23T03:42:07;20.80;99.90
39079;DHT22;24829;49.208;12.080;2022-07-23T03:44:32;20.80;99.90
39079;DHT22;24829;49.208;12.080;2022-07-23T03:46:58;20.80;99.90
39079;DHT22;24829;49.208;12.080;2022-07-23T03:49:24;20.90;99.90
39079;DHT22;24829;49.208;12.080;2022-07-23T03:51:50;20.90;99.90
39079;DHT22;24829;49.208;12.080;2022-07-23T03:54:16;20.90;99.90
39079;DHT22;24829;49.208;12.080;2022-07-23T03:56:41;20.90;99.90
39079;DHT22;24829;49.208;12.080;2022-07-23T03:59:08;20.80;99.90
39079;DHT22;24829;49.208;12.080;2022-07-23T04:01:34;20.80;99.90
39079;DHT22;24829;49.208;12.080;2022-07-23T04:04:00;20.80;99.90
39079;DHT22;24829;49.208;12.080;2022-07-23T04:06:25;20.90;99.90
39079;DHT22;24829;49.208;12.080;2022-07-23T04:08:51;20.90;99.90
39079;DHT22;24829;49.208;12.080;2022-07-23T04:11:16;20.90;99.90
39079;DHT22;24829;49.208;12.080;2022-07-23T04:13:42;20.90;99.90
39079;DHT22;24829;49.208;12.080;2022-07-23T04:16:07;20.90;99.90
39079;DHT22;24829;49.208;12.080;2022-07-23T04:18:33;20.90;99.90
39079;DHT22;24829;49.208;12.080;2022-07-23T04:20:59;20.90;99.90
39079;DHT22;24829;49.208;12.080;2022-07-23T04:23:24;21.00;99.90
39079;DHT22;24829;49.208;12.080;2022-07-23T04:25:50;21.00;99.90
39079;DHT22;24829;49.208;12.080;2022-07-23T04:28:15;21.00;99.90
39079;DHT22;24829;49.208;12.080;2022-07-23T04:30:41;21.10;99.90
39079;DHT22;24829;49.208;12.080;2022-07-23T04:33:06;21.10;99.90
39079;DHT22;24829;49.208;12.080;2022-07-23T04:35:36;21.10;99.90
39079;DHT22;24829;49.208;12.080;2022-07-23T04:38:02;21.10;99.90
39079;DHT22;24829;49.208;12.080;2022-07-23T04:40:28;21.00;99.90
39079;DHT22;24829;49.208;12.080;2022-07-23T04:42:54;21.00;99.90
39079;DHT22;24829;49.208;12.080;2022-07-23T04:45:20;21.10;99.90
39079;DHT22;24829;49.208;12.080;2022-07-23T04:47:45;21.20;99.90
39079;DHT22;24829;49.208;12.080;2022-07-23T04:50:11;21.20;99.90
39079;DHT22;24829;49.208;12.080;2022-07-23T04:52:37;21.20;99.90
39079;DHT22;24829;49.208;12.080;2022-07-23T04:55:03;21.20;99.90
39079;DHT22;24829;49.208;12.080;2022-07-23T04:57:29;21.10;99.90
39079;DHT22;24829;49.208;12.080;2022-07-23T04:59:54;21.20;99.90
39079;DHT22;24829;49.208;12.080;2022-07-23T05:02:20;21.20;99.90
39079;DHT22;24829;49.208;12.080;2022-07-23T05:04:45;21.20;99.90
39079;DHT22;24829;49.208;12.080;2022-07-23T05:07:11;21.20;99.90
39079;DHT22;24829;49.208;12.080;2022-07-23T05:09:37;21.30;99.90
39079;DHT22;24829;49.208;12.080;2022-07-23T05:12:02;21.30;99.90
39079;DHT22;24829;49.208;12.080;2022-07-23T05:14:28;21.40;99.90
39079;DHT22;24829;49.208;12.080;2022-07-23T05:16:54;21.40;99.90
39079;DHT22;24829;49.208;12.080;2022-07-23T05:19:19;21.40;99.90
39079;DHT22;24829;49.208;12.080;2022-07-23T05:21:45;21.50;99.90
39079;DHT22;24829;49.208;12.080;2022-07-23T05:24:10;21.50;99.90
39079;DHT22;24829;49.208;12.080;2022-07-23T05:26:36;21.60;99.90
39079;DHT22;24829;49.208;12.080;2022-07-23T05:29:02;21.60;99.90
39079;DHT22;24829;49.208;12.080;2022-07-23T05:31:27;21.60;99.90
39079;DHT22;24829;49.208;12.080;2022-07-23T05:33:53;21.60;99.90
39079;DHT22;24829;49.208;12.080;2022-07-23T05:36:18;21.70;99.90
39079;DHT22;24829;49.208;12.080;2022-07-23T05:38:44;21.70;99.90
39079;DHT22;24829;49.208;12.080;2022-07-23T05:41:09;21.70;99.90
39079;DHT22;24829;49.208;12.080;2022-07-23T05:43:35;21.80;99.90
39079;DHT22;24829;49.208;12.080;2022-07-23T05:46:01;21.90;99.90
39079;DHT22;24829;49.208;12.080;2022-07-23T05:48:26;22.00;99.90
39079;DHT22;24829;49.208;12.080;2022-07-23T05:50:52;22.10;99.90
39079;DHT22;24829;49.208;12.080;2022-07-23T05:53:18;22.20;99.90
39079;DHT22;24829;49.208;12.080;2022-07-23T05:55:43;22.30;99.90
39079;DHT22;24829;49.208;12.080;2022-07-23T05:58:09;22.40;99.90
39079;DHT22;24829;49.208;12.080;2022-07-23T06:00:35;22.60;99.90
39079;DHT22;24829;49.208;12.080;2022-07-23T06:03:00;22.80;99.90
39079;DHT22;24829;49.208;12.080;2022-07-23T06:05:26;23.00;99.90
39079;DHT22;24829;49.208;12.080;2022-07-23T06:07:52;23.30;99.90
39079;DHT22;24829;49.208;12.080;2022-07-23T06:10:18;23.50;99.90
39079;DHT22;24829;49.208;12.080;2022-07-23T06:12:44;23.70;99.90
39079;DHT22;24829;49.208;12.080;2022-07-23T06:15:10;23.70;99.90
39079;DHT22;24829;49.208;12.080;2022-07-23T06:17:36;23.70;99.90
39079;DHT22;24829;49.208;12.080;2022-07-23T06:20:05;23.60;99.90
39079;DHT22;24829;49.208;12.080;2022-07-23T06:22:31;23.60;99.90
39079;DHT22;24829;49.208;12.080;2022-07-23T06:24:56;23.50;99.90
39079;DHT22;24829;49.208;12.080;2022-07-23T06:27:22;23.50;99.90
39079;DHT22;24829;49.208;12.080;2022-07-23T06:29:48;23.60;99.90
39079;DHT22;24829;49.208;12.080;2022-07-23T06:32:13;23.90;99.90
39079;DHT22;24829;49.208;12.080;2022-07-23T06:34:39;24.30;99.90
39079;DHT22;24829;49.208;12.080;2022-07-23T06:37:04;24.70;99.90
39079;DHT22;24829;49.208;12.080;2022-07-23T06:39:30;24.80;99.90
39079;DHT22;24829;49.208;12.080;2022-07-23T06:41:56;25.00;99.90
39079;DHT22;24829;49.208;12.080;2022-07-23T06:44:21;25.20;99.90
39079;DHT22;24829;49.208;12.080;2022-07-23T06:46:47;25.40;99.90
39079;DHT22;24829;49.208;12.080;2022-07-23T06:49:12;25.50;99.90
39079;DHT22;24829;49.208;12.080;2022-07-23T06:51:38;25.70;99.90
39079;DHT22;24829;49.208;12.080;2022-07-23T06:54:04;25.70;99.90
39079;DHT22;24829;49.208;12.080;2022-07-23T06:56:30;25.90;99.90
39079;DHT22;24829;49.208;12.080;2022-07-23T06:58:55;26.00;99.50
39079;DHT22;24829;49.208;12.080;2022-07-23T07:01:21;26.10;99.30
39079;DHT22;24829;49.208;12.080;2022-07-23T07:03:47;26.20;99.20
39079;DHT22;24829;49.208;12.080;2022-07-23T07:06:14;26.30;98.80
39079;DHT22;24829;49.208;12.080;2022-07-23T07:08:40;26.40;98.90
39079;DHT22;24829;49.208;12.080;2022-07-23T07:11:05;26.50;98.80
39079;DHT22;24829;49.208;12.080;2022-07-23T07:13:31;26.60;98.30
39079;DHT22;24829;49.208;12.080;2022-07-23T07:15:57;26.50;98.70
39079;DHT22;24829;49.208;12.080;2022-07-23T07:18:22;26.80;98.60
39079;DHT22;24829;49.208;12.080;2022-07-23T07:20:48;27.00;98.30
39079;DHT22;24829;49.208;12.080;2022-07-23T07:23:14;27.30;98.30
39079;DHT22;24829;49.208;12.080;2022-07-23T07:25:40;27.30;98.20
39079;DHT22;24829;49.208;12.080;2022-07-23T07:28:05;27.10;98.20
39079;DHT22;24829;49.208;12.080;2022-07-23T07:30:31;26.70;98.70
39079;DHT22;24829;49.208;12.080;2022-07-23T07:32:56;26.30;99.40
39079;DHT22;24829;49.208;12.080;2022-07-23T07:35:22;26.20;99.80
39079;DHT22;24829;49.208;12.080;2022-07-23T07:37:48;26.30;99.90
39079;DHT22;24829;49.208;12.080;2022-07-23T07:40:13;26.50;99.90
39079;DHT22;24829;49.208;12.080;2022-07-23T07:42:50;26.70;99.90
39079;DHT22;24829;49.208;12.080;2022-07-23T07:45:16;26.80;99.10
39079;DHT22;24829;49.208;12.080;2022-07-23T07:47:42;27.00;99.00
39079;DHT22;24829;49.208;12.080;2022-07-23T07:50:08;27.30;98.80
39079;DHT22;24829;49.208;12.080;2022-07-23T07:52:35;27.60;97.50
39079;DHT22;24829;49.208;12.080;2022-07-23T07:55:05;27.80;97.00
39079;DHT22;24829;49.208;12.080;2022-07-23T07:57:30;28.00;96.80
39079;DHT22;24829;49.208;12.080;2022-07-23T07:59:56;28.20;96.40
39079;DHT22;24829;49.208;12.080;2022-07-23T08:02:22;28.40;96.20
39079;DHT22;24829;49.208;12.080;2022-07-23T08:04:47;28.30;96.10
39079;DHT22;24829;49.208;12.080;2022-07-23T08:07:14;28.10;96.20
39079;DHT22;24829;49.208;12.080;2022-07-23T08:09:40;28.00;96.00
39079;DHT22;24829;49.208;12.080;2022-07-23T08:12:05;28.00;96.00
39079;DHT22;24829;49.208;12.080;2022-07-23T08:14:31;27.90;95.30
39079;DHT22;24829;49.208;12.080;2022-07-23T08:16:56;27.80;95.60
39079;DHT22;24829;49.208;12.080;2022-07-23T08:19:22;27.80;95.50
39079;DHT22;24829;49.208;12.080;2022-07-23T08:21:47;28.00;95.10
39079;DHT22;24829;49.208;12.080;2022-07-23T08:24:13;28.30;94.40
39079;DHT22;24829;49.208;12.080;2022-07-23T08:26:39;28.60;93.90
39079;DHT22;24829;49.208;12.080;2022-07-23T08:29:04;28.60;93.40
39079;DHT22;24829;49.208;12.080;2022-07-23T08:31:30;28.80;93.40
39079;DHT22;24829;49.208;12.080;2022-07-23T08:33:58;29.00;92.70
39079;DHT22;24829;49.208;12.080;2022-07-23T08:36:24;29.20;91.80
39079;DHT22;24829;49.208;12.080;2022-07-23T08:38:55;29.40;91.20
39079;DHT22;24829;49.208;12.080;2022-07-23T08:41:20;29.70;90.80
39079;DHT22;24829;49.208;12.080;2022-07-23T08:43:46;30.00;90.40
39079;DHT22;24829;49.208;12.080;2022-07-23T08:46:13;30.30;88.10
39079;DHT22;24829;49.208;12.080;2022-07-23T08:48:39;30.20;88.10
39079;DHT22;24829;49.208;12.080;2022-07-23T08:51:05;30.10;86.00
39079;DHT22;24829;49.208;12.080;2022-07-23T08:53:33;30.20;84.70
39079;DHT22;24829;49.208;12.080;2022-07-23T08:56:04;30.40;85.70
39079;DHT22;24829;49.208;12.080;2022-07-23T08:58:31;30.60;82.20
39079;DHT22;24829;49.208;12.080;2022-07-23T09:00:57;31.00;81.90
39079;DHT22;24829;49.208;12.080;2022-07-23T09:03:28;31.30;79.00
39079;DHT22;24829;49.208;12.080;2022-07-23T09:05:55;31.50;77.50
39079;DHT22;24829;49.208;12.080;2022-07-23T09:08:43;31.70;77.00
39079;DHT22;24829;49.208;12.080;2022-07-23T09:11:26;31.80;75.50
39079;DHT22;24829;49.208;12.080;2022-07-23T09:13:53;31.70;74.90
39079;DHT22;24829;49.208;12.080;2022-07-23T09:16:24;31.70;73.00
39079;DHT22;24829;49.208;12.080;2022-07-23T09:19:08;31.50;72.80
39079;DHT22;24829;49.208;12.080;2022-07-23T09:21:35;31.30;73.00
39079;DHT22;24829;49.208;12.080;2022-07-23T09:24:12;31.30;72.30
39079;DHT22;24829;49.208;12.080;2022-07-23T09:36:50;30.90;71.00
39079;DHT22;24829;49.208;12.080;2022-07-23T09:39:22;30.70;71.70
39079;DHT22;24829;49.208;12.080;2022-07-23T09:41:49;30.70;72.30
39079;DHT22;24829;49.208;12.080;2022-07-23T09:44:20;30.90;71.70
39079;DHT22;24829;49.208;12.080;2022-07-23T09:46:48;31.20;71.30
39079;DHT22;24829;49.208;12.080;2022-07-23T09:49:19;31.50;69.30
39079;DHT22;24829;49.208;12.080;2022-07-23T09:54:20;31.50;68.10
39079;DHT22;24829;49.208;12.080;2022-07-23T09:56:48;31.50;67.60
39079;DHT22;24829;49.208;12.080;2022-07-23T09:59:16;31.80;67.20
39079;DHT22;24829;49.208;12.080;2022-07-23T10:01:44;32.10;67.40
39079;DHT22;24829;49.208;12.080;2022-07-23T10:04:11;32.30;67.40
39079;DHT22;24829;49.208;12.080;2022-07-23T10:06:39;32.30;66.80
39079;DHT22;24829;49.208;12.080;2022-07-23T10:09:05;32.10;67.00
39079;DHT22;24829;49.208;12.080;2022-07-23T10:11:31;31.70;67.00
39079;DHT22;24829;49.208;12.080;2022-07-23T10:13:58;31.30;67.80
39079;DHT22;24829;49.208;12.080;2022-07-23T10:16:27;31.10;68.60
39079;DHT22;24829;49.208;12.080;2022-07-23T10:18:53;30.80;68.10
39079;DHT22;24829;49.208;12.080;2022-07-23T10:21:48;30.50;69.30
39079;DHT22;24829;49.208;12.080;2022-07-23T10:30:04;30.20;70.20
39079;DHT22;24829;49.208;12.080;2022-07-23T10:38:29;29.90;70.90
39079;DHT22;24829;49.208;12.080;2022-07-23T10:41:03;29.90;72.00
39079;DHT22;24829;49.208;12.080;2022-07-23T10:43:29;29.80;73.00
39079;DHT22;24829;49.208;12.080;2022-07-23T10:45:56;29.70;74.10
39079;DHT22;24829;49.208;12.080;2022-07-23T10:48:41;29.60;74.20
39079;DHT22;24829;49.208;12.080;2022-07-23T10:56:49;28.90;75.00
39079;DHT22;24829;49.208;12.080;2022-07-23T10:59:15;28.70;74.50
39079;DHT22;24829;49.208;12.080;2022-07-23T11:01:40;28.60;74.50
39079;DHT22;24829;49.208;12.080;2022-07-23T11:04:06;28.80;73.30
39079;DHT22;24829;49.208;12.080;2022-07-23T11:09:43;29.40;70.80
39079;DHT22;24829;49.208;12.080;2022-07-23T11:17:22;30.10;70.00
39079;DHT22;24829;49.208;12.080;2022-07-23T11:25:09;29.50;71.40
39079;DHT22;24829;49.208;12.080;2022-07-23T11:27:43;29.30;72.30
39079;DHT22;24829;49.208;12.080;2022-07-23T11:30:11;29.20;72.10
39079;DHT22;24829;49.208;12.080;2022-07-23T11:35:35;28.90;72.90
39079;DHT22;24829;49.208;12.080;2022-07-23T11:38:07;28.70;73.20
39079;DHT22;24829;49.208;12.080;2022-07-23T11:40:34;28.60;72.30
39079;DHT22;24829;49.208;12.080;2022-07-23T11:43:06;28.60;72.60
39079;DHT22;24829;49.208;12.080;2022-07-23T11:45:38;28.80;72.70
39079;DHT22;24829;49.208;12.080;2022-07-23T11:48:06;28.80;71.50
39079;DHT22;24829;49.208;12.080;2022-07-23T11:50:32;28.70;71.90
39079;DHT22;24829;49.208;12.080;2022-07-23T11:52:58;28.70;70.60
39079;DHT22;24829;49.208;12.080;2022-07-23T11:55:24;28.60;71.50
39079;DHT22;24829;49.208;12.080;2022-07-23T11:57:52;28.60;70.50
39079;DHT22;24829;49.208;12.080;2022-07-23T12:00:24;28.60;71.10
39079;DHT22;24829;49.208;12.080;2022-07-23T12:02:55;28.70;69.70
39079;DHT22;24829;49.208;12.080;2022-07-23T12:05:25;28.70;70.20
39079;DHT22;24829;49.208;12.080;2022-07-23T12:07:53;28.70;70.80
39079;DHT22;24829;49.208;12.080;2022-07-23T12:10:29;28.70;71.00
39079;DHT22;24829;49.208;12.080;2022-07-23T12:12:56;28.80;71.40
39079;DHT22;24829;49.208;12.080;2022-07-23T12:15:30;28.70;70.60
39079;DHT22;24829;49.208;12.080;2022-07-23T12:17:59;28.50;71.30
39079;DHT22;24829;49.208;12.080;2022-07-23T12:20:26;28.40;72.20
39079;DHT22;24829;49.208;12.080;2022-07-23T12:22:56;28.30;72.80
39079;DHT22;24829;49.208;12.080;2022-07-23T12:25:24;28.20;73.20
39079;DHT22;24829;49.208;12.080;2022-07-23T12:28:00;28.20;73.30
39079;DHT22;24829;49.208;12.080;2022-07-23T12:30:32;28.20;74.00
39079;DHT22;24829;49.208;12.080;2022-07-23T12:32:59;28.50;73.60
39079;DHT22;24829;49.208;12.080;2022-07-23T12:35:31;28.70;72.40
39079;DHT22;24829;49.208;12.080;2022-07-23T12:38:01;28.80;70.30
39079;DHT22;24829;49.208;12.080;2022-07-23T12:40:30;29.00;69.80
39079;DHT22;24829;49.208;12.080;2022-07-23T12:43:02;29.10;69.40
39079;DHT22;24829;49.208;12.080;2022-07-23T12:45:50;29.20;69.80
39079;DHT22;24829;49.208;12.080;2022-07-23T12:48:22;29.20;73.40
39079;DHT22;24829;49.208;12.080;2022-07-23T12:53:17;28.90;74.10
39079;DHT22;24829;49.208;12.080;2022-07-23T12:55:44;28.80;73.80
39079;DHT22;24829;49.208;12.080;2022-07-23T12:58:13;28.70;74.30
39079;DHT22;24829;49.208;12.080;2022-07-23T13:03:41;28.80;74.30
39079;DHT22;24829;49.208;12.080;2022-07-23T13:06:09;28.90;72.70
39079;DHT22;24829;49.208;12.080;2022-07-23T13:08:37;29.10;72.40
39079;DHT22;24829;49.208;12.080;2022-07-23T13:11:05;29.10;72.10
39079;DHT22;24829;49.208;12.080;2022-07-23T13:13:33;29.20;70.40
39079;DHT22;24829;49.208;12.080;2022-07-23T13:15:59;29.30;68.80
39079;DHT22;24829;49.208;12.080;2022-07-23T13:18:26;29.30;68.90
39079;DHT22;24829;49.208;12.080;2022-07-23T13:20:52;29.40;68.90
39079;DHT22;24829;49.208;12.080;2022-07-23T13:23:18;29.50;68.00
39079;DHT22;24829;49.208;12.080;2022-07-23T13:25:45;29.80;70.40
39079;DHT22;24829;49.208;12.080;2022-07-23T13:28:11;29.90;71.30
39079;DHT22;24829;49.208;12.080;2022-07-23T13:30:37;29.70;71.70
39079;DHT22;24829;49.208;12.080;2022-07-23T13:33:04;29.60;72.00
39079;DHT22;24829;49.208;12.080;2022-07-23T13:35:30;29.40;72.10
39079;DHT22;24829;49.208;12.080;2022-07-23T13:37:56;29.40;72.60
39079;DHT22;24829;49.208;12.080;2022-07-23T13:40:22;29.50;72.60
39079;DHT22;24829;49.208;12.080;2022-07-23T13:42:48;29.60;72.00
39079;DHT22;24829;49.208;12.080;2022-07-23T13:45:13;29.50;71.70
39079;DHT22;24829;49.208;12.080;2022-07-23T13:47:39;29.30;71.70
39079;DHT22;24829;49.208;12.080;2022-07-23T13:50:05;29.00;72.60
39079;DHT22;24829;49.208;12.080;2022-07-23T13:52:31;28.80;73.10
39079;DHT22;24829;49.208;12.080;2022-07-23T13:55:05;28.70;73.30
39079;DHT22;24829;49.208;12.080;2022-07-23T13:57:31;28.60;73.40
39079;DHT22;24829;49.208;12.080;2022-07-23T13:59:57;28.70;73.50
39079;DHT22;24829;49.208;12.080;2022-07-23T14:02:23;28.70;73.40
39079;DHT22;24829;49.208;12.080;2022-07-23T14:04:49;28.70;72.70
39079;DHT22;24829;49.208;12.080;2022-07-23T14:07:15;28.70;73.10
39079;DHT22;24829;49.208;12.080;2022-07-23T14:09:41;28.50;73.10
39079;DHT22;24829;49.208;12.080;2022-07-23T14:12:07;28.50;73.30
39079;DHT22;24829;49.208;12.080;2022-07-23T14:14:33;28.30;73.90
39079;DHT22;24829;49.208;12.080;2022-07-23T14:16:59;28.20;74.00
39079;DHT22;24829;49.208;12.080;2022-07-23T14:19:24;28.20;74.50
39079;DHT22;24829;49.208;12.080;2022-07-23T14:21:50;28.10;74.80
39079;DHT22;24829;49.208;12.080;2022-07-23T14:24:16;28.20;74.30
39079;DHT22;24829;49.208;12.080;2022-07-23T14:26:41;28.30;74.90
39079;DHT22;24829;49.208;12.080;2022-07-23T14:29:07;28.40;74.40
39079;DHT22;24829;49.208;12.080;2022-07-23T14:31:33;28.40;74.60
39079;DHT22;24829;49.208;12.080;2022-07-23T14:33:59;28.60;74.60
39079;DHT22;24829;49.208;12.080;2022-07-23T14:36:25;28.80;73.20
39079;DHT22;24829;49.208;12.080;2022-07-23T14:38:51;28.80;72.60
39079;DHT22;24829;49.208;12.080;2022-07-23T14:41:17;28.90;71.50
39079;DHT22;24829;49.208;12.080;2022-07-23T14:43:43;28.90;70.80
39079;DHT22;24829;49.208;12.080;2022-07-23T14:46:09;28.80;71.20
39079;DHT22;24829;49.208;12.080;2022-07-23T14:48:36;28.80;71.00
39079;DHT22;24829;49.208;12.080;2022-07-23T14:51:02;28.80;71.60
39079;DHT22;24829;49.208;12.080;2022-07-23T14:53:27;28.80;71.40
39079;DHT22;24829;49.208;12.080;2022-07-23T14:55:53;28.90;70.80
39079;DHT22;24829;49.208;12.080;2022-07-23T14:58:20;28.80;70.70
39079;DHT22;24829;49.208;12.080;2022-07-23T15:00:45;28.80;70.90
39079;DHT22;24829;49.208;12.080;2022-07-23T15:03:11;28.80;70.60
39079;DHT22;24829;49.208;12.080;2022-07-23T15:05:36;28.80;70.50
39079;DHT22;24829;49.208;12.080;2022-07-23T15:08:02;28.70;70.90
39079;DHT22;24829;49.208;12.080;2022-07-23T15:10:28;28.70;71.30
39079;DHT22;24829;49.208;12.080;2022-07-23T15:12:53;28.60;71.30
39079;DHT22;24829;49.208;12.080;2022-07-23T15:15:19;28.50;71.40
39079;DHT22;24829;49.208;12.080;2022-07-23T15:17:44;28.40;71.60
39079;DHT22;24829;49.208;12.080;2022-07-23T15:20:10;28.40;71.30
39079;DHT22;24829;49.208;12.080;2022-07-23T15:22:36;28.40;71.40
39079;DHT22;24829;49.208;12.080;2022-07-23T15:25:01;28.40;71.50
39079;DHT22;24829;49.208;12.080;2022-07-23T15:27:27;28.40;71.40
39079;DHT22;24829;49.208;12.080;2022-07-23T15:29:53;28.40;71.40
39079;DHT22;24829;49.208;12.080;2022-07-23T15:32:19;28.40;71.30
39079;DHT22;24829;49.208;12.080;2022-07-23T15:34:44;28.50;71.30
39079;DHT22;24829;49.208;12.080;2022-07-23T15:37:10;28.50;71.30
39079;DHT22;24829;49.208;12.080;2022-07-23T15:39:35;28.50;71.20
39079;DHT22;24829;49.208;12.080;2022-07-23T15:42:02;28.60;70.80
39079;DHT22;24829;49.208;12.080;2022-07-23T15:44:28;28.60;70.80
39079;DHT22;24829;49.208;12.080;2022-07-23T15:46:53;28.60;70.10
39079;DHT22;24829;49.208;12.080;2022-07-23T15:49:20;28.60;70.50
39079;DHT22;24829;49.208;12.080;2022-07-23T15:51:46;28.60;70.90
39079;DHT22;24829;49.208;12.080;2022-07-23T15:54:11;28.60;70.40
39079;DHT22;24829;49.208;12.080;2022-07-23T15:56:37;28.60;70.60
39079;DHT22;24829;49.208;12.080;2022-07-23T15:59:03;28.60;70.30
39079;DHT22;24829;49.208;12.080;2022-07-23T16:01:28;28.70;70.00
39079;DHT22;24829;49.208;12.080;2022-07-23T16:03:55;28.80;68.80